createdAt,value
2023-04-27T00:02:41.807Z,8.13
2023-04-27T00:07:43.549Z,7.60
2023-04-27T00:12:45.576Z,7.87
2023-04-27T00:17:47.216Z,6.63
2023-04-27T00:22:48.911Z,6.53
2023-04-27T00:27:50.599Z,8.30
2023-04-27T00:32:52.233Z,8.03
2023-04-27T00:37:54.994Z,7.53
2023-04-27T00:42:56.659Z,8.07
2023-04-27T00:47:59.343Z,6.33
2023-04-27T00:53:01.529Z,6.73
2023-04-27T00:58:03.035Z,8.40
2023-04-27T01:03:04.837Z,8.13
2023-04-27T01:08:06.659Z,9.23
2023-04-27T01:13:08.243Z,7.77
2023-04-27T01:18:10.001Z,7.77
2023-04-27T01:23:17.264Z,7.30
2023-04-27T01:28:19.263Z,7.93
2023-04-27T01:33:20.854Z,7.87
2023-04-27T01:38:24.215Z,7.83
2023-04-27T01:43:26.356Z,6.23
2023-04-27T01:48:28.028Z,7.50
2023-04-27T01:53:30.221Z,9.87
2023-04-27T01:58:32.579Z,5.17
2023-04-27T02:03:34.287Z,6.77
2023-04-27T02:08:36.400Z,5.00
2023-04-27T02:13:38.001Z,8.57
2023-04-27T02:18:40.419Z,4.60
2023-04-27T02:23:41.945Z,6.33
2023-04-27T02:28:43.551Z,6.30
2023-04-27T02:33:45.672Z,7.93
2023-04-27T02:38:47.264Z,7.83
2023-04-27T02:43:50.615Z,5.03
2023-04-27T02:48:52.222Z,6.13
2023-04-27T02:53:54.312Z,6.87
2023-04-27T02:58:56.392Z,5.07
2023-04-27T03:03:58.310Z,8.20
2023-04-27T03:09:00.015Z,5.77
2023-04-27T03:14:01.851Z,6.30
2023-04-27T03:19:03.962Z,7.53
2023-04-27T03:24:05.931Z,9.40
2023-04-27T03:29:07.568Z,8.13
2023-04-27T03:34:09.168Z,6.80
2023-04-27T03:39:11.034Z,6.17
2023-04-27T03:44:12.776Z,4.60
2023-04-27T03:49:14.544Z,5.33
2023-04-27T03:54:16.404Z,7.77
2023-04-27T03:59:18.110Z,6.10
2023-04-27T04:04:19.930Z,5.47
2023-04-27T04:09:23.709Z,4.93
2023-04-27T04:14:25.573Z,4.70
2023-04-27T04:19:27.193Z,4.67
2023-04-27T04:24:28.742Z,7.57
2023-04-27T04:29:30.713Z,6.03
2023-04-27T04:34:33.525Z,4.73
2023-04-27T04:39:35.098Z,8.40
2023-04-27T04:44:36.665Z,5.97
2023-04-27T04:49:38.216Z,5.57
2023-04-27T04:54:40.000Z,5.37
2023-04-27T05:05:32.278Z,9.23
2023-04-27T05:10:33.844Z,5.83
2023-04-27T05:15:37.349Z,5.13
2023-04-27T05:20:39.141Z,5.83
2023-04-27T05:25:43.894Z,7.60
2023-04-27T05:30:45.494Z,4.43
2023-04-27T05:35:47.060Z,4.57
2023-04-27T05:40:56.973Z,5.70
2023-04-27T05:45:58.559Z,5.90
2023-04-27T05:51:03.738Z,8.50
2023-04-27T05:56:07.024Z,5.83
2023-04-27T06:01:08.703Z,5.10
2023-04-27T06:06:10.303Z,7.23
2023-04-27T06:11:11.924Z,4.93
2023-04-27T06:16:13.566Z,8.50
2023-04-27T06:21:15.366Z,7.47
2023-04-27T06:26:16.926Z,6.33
2023-04-27T06:31:18.573Z,7.33
2023-04-27T06:36:20.872Z,5.40
2023-04-27T06:41:26.528Z,6.37
2023-04-27T06:46:28.208Z,5.80
2023-04-27T06:51:29.822Z,5.40
2023-04-27T06:56:31.690Z,6.00
2023-04-27T07:01:33.387Z,6.10
2023-04-27T07:06:34.986Z,4.73
2023-04-27T07:11:36.728Z,7.53
2023-04-27T07:16:39.139Z,8.97
2023-04-27T07:21:41.192Z,5.33
2023-04-27T07:26:43.007Z,8.03
2023-04-27T07:31:44.629Z,6.03
2023-04-27T07:36:46.178Z,6.07
2023-04-27T07:41:48.287Z,6.70
2023-04-27T07:46:50.174Z,6.30
2023-04-27T07:51:52.031Z,6.93
2023-04-27T07:56:54.124Z,4.90
2023-04-27T08:02:04.094Z,5.90
2023-04-27T08:07:13.037Z,5.63
2023-04-27T08:12:14.812Z,5.33
2023-04-27T08:17:18.508Z,5.07
2023-04-27T08:22:20.159Z,5.63
2023-04-27T08:27:21.735Z,5.37
2023-04-27T08:32:23.313Z,4.97
2023-04-27T08:37:24.883Z,5.13
2023-04-27T08:42:26.595Z,5.53
2023-04-27T08:47:39.146Z,6.83
2023-04-27T08:52:48.656Z,7.87
2023-04-27T08:57:57.755Z,6.47
2023-04-27T09:03:04.143Z,6.47
2023-04-27T09:08:08.335Z,8.20
2023-04-27T09:13:09.965Z,6.87
2023-04-27T09:18:22.844Z,7.17
2023-04-27T09:23:31.438Z,7.57
2023-04-27T09:28:34.272Z,8.03
2023-04-27T09:33:36.308Z,8.20
2023-04-27T09:38:37.979Z,9.87
2023-04-27T09:43:41.319Z,9.83
2023-04-27T09:48:43.039Z,9.50
2023-04-27T09:53:52.979Z,8.47
2023-04-27T09:59:16.780Z,9.10
2023-04-27T10:04:41.839Z,8.20
2023-04-27T10:09:46.906Z,8.70
2023-04-27T10:14:57.122Z,8.00
2023-04-27T10:20:02.992Z,8.57
2023-04-27T10:25:12.973Z,11.07
2023-04-27T10:30:18.531Z,7.67
2023-04-27T10:35:24.044Z,7.33
2023-04-27T10:40:33.342Z,5.53
2023-04-27T10:45:34.898Z,7.13
2023-04-27T10:50:37.086Z,9.50
2023-04-27T10:55:38.779Z,6.60
2023-04-27T11:06:33.396Z,8.37
2023-04-27T11:11:35.067Z,8.00
2023-04-27T11:16:36.778Z,5.93
2023-04-27T11:21:38.889Z,5.60
2023-04-27T11:26:40.665Z,5.10
2023-04-27T11:31:49.377Z,11.07
2023-04-27T11:37:17.504Z,5.57
2023-04-27T11:42:28.976Z,8.63
2023-04-27T11:47:32.795Z,5.43
2023-04-27T11:52:36.605Z,5.83
2023-04-27T11:57:38.901Z,5.67
2023-04-27T12:02:42.327Z,5.33
2023-04-27T12:07:44.084Z,5.97
2023-04-27T12:12:46.066Z,4.40
2023-04-27T12:17:48.072Z,5.30
2023-04-27T12:22:49.663Z,3.93
2023-04-27T12:27:51.856Z,3.37
2023-04-27T12:32:53.491Z,3.07
2023-04-27T12:37:55.364Z,3.43
2023-04-27T12:42:58.541Z,4.57
2023-04-27T12:48:03.916Z,2.37
2023-04-27T12:53:05.922Z,3.70
2023-04-27T12:58:07.778Z,3.47
2023-04-27T13:03:09.631Z,4.27
2023-04-27T13:08:11.376Z,4.77
2023-04-27T13:13:13.048Z,6.13
2023-04-27T13:18:14.672Z,4.73
2023-04-27T13:23:16.632Z,3.70
2023-04-27T13:28:18.228Z,3.77
2023-04-27T13:33:23.086Z,4.17
2023-04-27T13:38:25.523Z,8.23
2023-04-27T13:43:27.226Z,3.93
2023-04-27T13:48:29.679Z,6.03
2023-04-27T13:53:31.363Z,4.17
2023-04-27T13:58:33.626Z,3.53
2023-04-27T14:03:35.811Z,4.57
2023-04-27T14:08:37.831Z,3.65
2023-04-27T14:13:39.391Z,3.00
2023-04-27T14:18:40.980Z,4.00
2023-04-27T14:23:42.529Z,5.00
2023-04-27T14:28:44.085Z,6.05
2023-04-27T14:33:45.656Z,3.47
2023-04-27T14:38:47.550Z,2.40
2023-04-27T14:43:49.268Z,3.00
2023-04-27T14:48:51.460Z,3.50
2023-04-27T14:53:53.151Z,3.63
2023-04-27T14:58:55.374Z,2.50
2023-04-27T15:03:58.057Z,2.47
2023-04-27T15:08:59.884Z,2.07
2023-04-27T15:14:01.496Z,2.60
2023-04-27T15:19:03.514Z,3.17
2023-04-27T15:24:05.340Z,2.37
2023-04-27T15:29:07.386Z,3.53
2023-04-27T15:34:08.997Z,1.98
2023-04-27T15:39:10.677Z,3.70
2023-04-27T15:44:12.307Z,2.60
2023-04-27T15:49:14.095Z,4.63
2023-04-27T15:54:17.957Z,2.87
2023-04-27T15:59:19.627Z,3.20
2023-04-27T16:04:21.481Z,2.13
2023-04-27T16:09:23.387Z,2.23
2023-04-27T16:14:24.996Z,3.07
2023-04-27T16:19:27.089Z,2.13
2023-04-27T16:24:30.499Z,2.00
2023-04-27T16:29:32.045Z,1.87
2023-04-27T16:34:33.678Z,4.07
2023-04-27T16:39:35.889Z,2.77
2023-04-27T16:44:38.032Z,2.20
2023-04-27T16:49:39.584Z,3.00
2023-04-27T16:54:41.139Z,2.20
2023-04-27T16:59:42.778Z,1.93
2023-04-27T17:04:44.445Z,1.90
2023-04-27T17:09:46.016Z,2.83
2023-04-27T17:14:47.600Z,2.30
2023-04-27T17:19:49.172Z,2.23
2023-04-27T17:24:50.689Z,9.95
2023-04-27T17:29:54.020Z,2.37
2023-04-27T17:34:55.724Z,3.50
2023-04-27T17:39:57.285Z,3.10
2023-04-27T17:44:58.843Z,2.47
2023-04-27T17:50:00.465Z,4.73
2023-04-27T17:55:02.036Z,2.83
2023-04-27T18:00:03.957Z,3.37
2023-04-27T18:05:06.324Z,4.33
2023-04-27T18:10:08.669Z,3.47
2023-04-27T18:15:10.552Z,3.63
2023-04-27T18:20:12.347Z,2.37
2023-04-27T18:25:14.149Z,2.57
2023-04-27T18:30:15.949Z,2.33
2023-04-27T18:35:17.543Z,2.43
2023-04-27T18:40:21.300Z,2.87
2023-04-27T18:45:22.908Z,2.10
2023-04-27T18:50:24.512Z,3.03
2023-04-27T18:55:26.169Z,2.17
2023-04-27T19:00:28.686Z,2.37
2023-04-27T19:05:30.538Z,2.30
2023-04-27T19:10:32.226Z,3.07
2023-04-27T19:15:34.035Z,4.93
2023-04-27T19:20:35.845Z,2.87
2023-04-27T19:25:37.612Z,2.40
2023-04-27T19:30:39.435Z,3.67
2023-04-27T19:35:42.225Z,3.63
2023-04-27T19:40:43.759Z,3.63
2023-04-27T19:45:45.458Z,4.23
2023-04-27T19:50:46.999Z,3.07
2023-04-27T19:55:48.568Z,3.17
2023-04-27T20:00:50.138Z,5.57
2023-04-27T20:05:52.645Z,3.70
2023-04-27T20:10:54.491Z,2.60
2023-04-27T20:15:57.624Z,4.30
2023-04-27T20:21:01.954Z,6.53
2023-04-27T20:26:03.699Z,2.63
2023-04-27T20:31:05.455Z,4.60
2023-04-27T20:36:17.167Z,2.83
2023-04-27T20:41:22.451Z,3.40
2023-04-27T20:46:23.984Z,4.60
2023-04-27T20:51:26.317Z,4.03
2023-04-27T20:56:30.637Z,4.17
2023-04-27T21:01:32.303Z,4.33
2023-04-27T21:06:34.146Z,3.47
2023-04-27T21:11:36.152Z,2.60
2023-04-27T21:16:37.770Z,2.80
2023-04-27T21:21:39.353Z,5.80
2023-04-27T21:26:42.314Z,4.63
2023-04-27T21:31:43.944Z,4.63
2023-04-27T21:36:45.469Z,4.33
2023-04-27T21:41:47.027Z,4.60
2023-04-27T21:46:48.657Z,5.47
2023-04-27T21:51:50.301Z,4.77
2023-04-27T21:56:51.866Z,4.23
2023-04-27T22:01:53.743Z,5.47
2023-04-27T22:06:55.298Z,6.57
2023-04-27T22:11:56.862Z,5.77
2023-04-27T22:16:58.561Z,5.20
2023-04-27T22:22:00.322Z,4.70
2023-04-27T22:27:02.060Z,3.50
2023-04-27T22:32:04.125Z,6.17
2023-04-27T22:37:07.037Z,5.37
2023-04-27T22:42:08.657Z,4.97
2023-04-27T22:47:10.863Z,5.97
2023-04-27T22:52:12.557Z,4.27
2023-04-27T22:57:14.136Z,4.13
2023-04-27T23:02:15.781Z,3.87
2023-04-27T23:07:18.302Z,3.97
2023-04-27T23:12:20.762Z,3.90
2023-04-27T23:17:22.860Z,5.23
2023-04-27T23:22:25.067Z,7.47
2023-04-27T23:27:26.700Z,4.30
2023-04-27T23:32:28.381Z,5.87
2023-04-27T23:37:29.984Z,5.63
2023-04-27T23:42:31.668Z,6.13
2023-04-27T23:47:34.041Z,4.57
2023-04-27T23:52:35.781Z,5.33
2023-04-27T23:57:37.411Z,4.63
